createdAt,value
2024-04-13T00:00:39.580Z,614.00
2024-04-13T00:01:39.572Z,613.00
2024-04-13T00:02:39.558Z,613.00
2024-04-13T00:03:39.746Z,611.00
2024-04-13T00:04:39.771Z,609.00
2024-04-13T00:05:39.756Z,607.00
2024-04-13T00:06:42.623Z,607.00
2024-04-13T00:07:39.839Z,609.00
2024-04-13T00:08:39.779Z,608.00
2024-04-13T00:09:39.830Z,609.00
2024-04-13T00:10:39.850Z,612.00
2024-04-13T00:11:39.831Z,611.00
2024-04-13T00:12:39.843Z,612.00
2024-04-13T00:13:39.849Z,612.00
2024-04-13T00:14:39.832Z,612.00
2024-04-13T00:15:40.021Z,614.00
2024-04-13T00:16:39.938Z,612.00
2024-04-13T00:17:39.861Z,613.00
2024-04-13T00:18:39.916Z,612.00
2024-04-13T00:19:39.822Z,613.00
2024-04-13T00:20:39.822Z,614.00
2024-04-13T00:21:39.864Z,614.00
2024-04-13T00:22:39.870Z,616.00
2024-04-13T00:23:39.819Z,615.00
2024-04-13T00:24:39.933Z,615.00
2024-04-13T00:25:39.967Z,615.00
2024-04-13T00:26:40.001Z,615.00
2024-04-13T00:27:40.087Z,617.00
2024-04-13T00:28:40.126Z,617.00
2024-04-13T00:29:40.219Z,618.00
2024-04-13T00:30:40.361Z,618.00
2024-04-13T00:31:40.608Z,620.00
2024-04-13T00:32:40.435Z,619.00
2024-04-13T00:33:40.770Z,621.00
2024-04-13T00:34:40.583Z,619.00
2024-04-13T00:35:40.580Z,617.00
2024-04-13T00:36:40.667Z,617.00
2024-04-13T00:37:41.024Z,618.00
2024-04-13T00:38:40.767Z,617.00
2024-04-13T00:39:40.902Z,617.00
2024-04-13T00:40:40.885Z,617.00
2024-04-13T00:41:41.001Z,618.00
2024-04-13T00:42:41.084Z,615.00
2024-04-13T00:43:41.082Z,615.00
2024-04-13T00:44:41.168Z,617.00
2024-04-13T00:45:41.279Z,617.00
2024-04-13T00:46:41.406Z,615.00
2024-04-13T00:47:41.477Z,614.00
2024-04-13T00:48:41.556Z,613.00
2024-04-13T00:49:41.545Z,612.00
2024-04-13T00:50:41.502Z,610.00
2024-04-13T00:51:41.706Z,608.00
2024-04-13T00:52:41.663Z,612.00
2024-04-13T00:53:41.731Z,609.00
2024-04-13T00:54:41.796Z,612.00
2024-04-13T00:55:41.809Z,614.00
2024-04-13T00:56:42.001Z,615.00
2024-04-13T00:57:41.995Z,616.00
2024-04-13T00:58:41.967Z,616.00
2024-04-13T00:59:42.796Z,616.00
2024-04-13T01:00:42.537Z,617.00
2024-04-13T01:01:42.127Z,617.00
2024-04-13T01:02:42.187Z,617.00
2024-04-13T01:03:42.344Z,615.00
2024-04-13T01:04:42.241Z,617.00
2024-04-13T01:05:42.430Z,617.00
2024-04-13T01:06:42.508Z,617.00
2024-04-13T01:07:42.416Z,617.00
2024-04-13T01:08:42.443Z,618.00
2024-04-13T01:09:42.471Z,616.00
2024-04-13T01:10:42.560Z,611.00
2024-04-13T01:11:42.750Z,614.00
2024-04-13T01:12:42.658Z,613.00
2024-04-13T01:13:42.732Z,611.00
2024-04-13T01:14:42.820Z,612.00
2024-04-13T01:15:42.847Z,610.00
2024-04-13T01:16:42.907Z,607.00
2024-04-13T01:17:42.953Z,605.00
2024-04-13T01:18:43.091Z,607.00
2024-04-13T01:19:43.034Z,607.00
2024-04-13T01:20:43.067Z,608.00
2024-04-13T01:21:43.171Z,606.00
2024-04-13T01:22:43.205Z,607.00
2024-04-13T01:23:43.263Z,609.00
2024-04-13T01:24:43.332Z,609.00
2024-04-13T01:25:43.388Z,609.00
2024-04-13T01:26:43.385Z,608.00
2024-04-13T01:27:43.461Z,607.00
2024-04-13T01:28:43.502Z,611.00
2024-04-13T01:29:43.514Z,610.00
2024-04-13T01:30:43.579Z,609.00
2024-04-13T01:31:43.598Z,610.00
2024-04-13T01:32:43.622Z,610.00
2024-04-13T01:33:43.849Z,612.00
2024-04-13T01:34:43.709Z,612.00
2024-04-13T01:35:43.985Z,613.00
2024-04-13T01:36:43.822Z,610.00
2024-04-13T01:37:43.748Z,610.00
2024-04-13T01:38:43.734Z,609.00
2024-04-13T01:39:43.913Z,607.00
2024-04-13T01:40:43.862Z,608.00
2024-04-13T01:41:43.930Z,609.00
2024-04-13T01:42:43.979Z,609.00
2024-04-13T01:43:43.982Z,609.00
2024-04-13T01:44:43.948Z,608.00
2024-04-13T01:45:43.988Z,607.00
2024-04-13T01:46:44.211Z,607.00
2024-04-13T01:47:44.222Z,605.00
2024-04-13T01:48:44.390Z,602.00
2024-04-13T01:49:44.123Z,602.00
2024-04-13T01:50:44.228Z,604.00
2024-04-13T01:51:44.218Z,605.00
2024-04-13T01:52:44.353Z,605.00
2024-04-13T01:53:44.245Z,606.00
2024-04-13T01:54:44.305Z,605.00
2024-04-13T01:55:44.324Z,605.00
2024-04-13T01:56:44.368Z,606.00
2024-04-13T01:57:44.399Z,607.00
2024-04-13T01:58:44.385Z,608.00
2024-04-13T01:59:44.435Z,610.00
2024-04-13T02:00:44.632Z,612.00
2024-04-13T02:01:44.460Z,613.00
2024-04-13T02:02:44.468Z,613.00
2024-04-13T02:03:44.694Z,614.00
2024-04-13T02:04:44.602Z,612.00
2024-04-13T02:05:44.659Z,612.00
2024-04-13T02:06:44.631Z,613.00
2024-04-13T02:07:44.546Z,614.00
2024-04-13T02:08:44.674Z,614.00
2024-04-13T02:09:44.669Z,614.00
2024-04-13T02:10:44.736Z,614.00
2024-04-13T02:11:44.656Z,613.00
2024-04-13T02:12:44.830Z,608.00
2024-04-13T02:13:44.741Z,608.00
2024-04-13T02:14:44.745Z,608.00
2024-04-13T02:15:44.823Z,607.00
2024-04-13T02:16:44.838Z,605.00
2024-04-13T02:17:44.990Z,603.00
2024-04-13T02:18:44.924Z,605.00
2024-04-13T02:19:45.016Z,603.00
2024-04-13T02:20:44.951Z,602.00
2024-04-13T02:21:44.931Z,601.00
2024-04-13T02:22:44.902Z,602.00
2024-04-13T02:23:44.962Z,602.00
2024-04-13T02:24:45.110Z,601.00
2024-04-13T02:25:44.917Z,601.00
2024-04-13T02:26:44.924Z,602.00
2024-04-13T02:27:44.928Z,604.00
2024-04-13T02:28:44.909Z,605.00
2024-04-13T02:29:45.176Z,608.00
2024-04-13T02:30:45.022Z,608.00
2024-04-13T02:31:44.958Z,608.00
2024-04-13T02:32:45.085Z,608.00
2024-04-13T02:33:45.156Z,607.00
2024-04-13T02:34:45.147Z,607.00
2024-04-13T02:35:45.129Z,607.00
2024-04-13T02:36:45.185Z,604.00
2024-04-13T02:37:45.161Z,603.00
2024-04-13T02:38:45.343Z,602.00
2024-04-13T02:39:45.133Z,601.00
2024-04-13T02:40:45.227Z,603.00
2024-04-13T02:41:45.160Z,603.00
2024-04-13T02:42:45.287Z,605.00
2024-04-13T02:43:45.215Z,602.00
2024-04-13T02:44:45.723Z,600.00
2024-04-13T02:45:45.358Z,599.00
2024-04-13T02:46:45.260Z,598.00
2024-04-13T02:47:45.306Z,599.00
2024-04-13T02:48:45.491Z,599.00
2024-04-13T02:49:45.342Z,599.00
2024-04-13T02:50:45.341Z,599.00
2024-04-13T02:51:45.440Z,601.00
2024-04-13T02:52:45.354Z,602.00
2024-04-13T02:53:45.592Z,605.00
2024-04-13T02:54:45.560Z,607.00
2024-04-13T02:55:45.433Z,609.00
2024-04-13T02:56:45.438Z,610.00
2024-04-13T02:57:45.515Z,608.00
2024-04-13T02:58:45.617Z,608.00
2024-04-13T02:59:45.464Z,607.00
2024-04-13T03:00:45.574Z,610.00
2024-04-13T03:01:45.569Z,610.00
2024-04-13T03:02:45.574Z,608.00
2024-04-13T03:03:45.675Z,607.00
2024-04-13T03:04:45.562Z,605.00
2024-04-13T03:05:45.808Z,605.00
2024-04-13T03:06:45.836Z,605.00
2024-04-13T03:07:45.777Z,604.00
2024-04-13T03:08:45.857Z,606.00
2024-04-13T03:09:46.006Z,606.00
2024-04-13T03:10:45.958Z,606.00
2024-04-13T03:11:45.882Z,607.00
2024-04-13T03:12:45.893Z,607.00
2024-04-13T03:13:45.859Z,607.00
2024-04-13T03:14:45.872Z,607.00
2024-04-13T03:15:45.933Z,609.00
2024-04-13T03:16:45.911Z,612.00
2024-04-13T03:17:46.033Z,611.00
2024-04-13T03:18:46.308Z,610.00
2024-04-13T03:19:45.935Z,611.00
2024-04-13T03:20:46.003Z,611.00
2024-04-13T03:21:46.090Z,612.00
2024-04-13T03:22:46.024Z,610.00
2024-04-13T03:23:45.990Z,607.00
2024-04-13T03:24:46.057Z,609.00
2024-04-13T03:25:46.047Z,608.00
2024-04-13T03:26:46.051Z,609.00
2024-04-13T03:27:46.072Z,607.00
2024-04-13T03:28:46.074Z,607.00
2024-04-13T03:29:46.086Z,605.00
2024-04-13T03:30:46.119Z,605.00
2024-04-13T03:31:46.126Z,605.00
2024-04-13T03:32:46.163Z,606.00
2024-04-13T03:33:46.134Z,605.00
2024-04-13T03:34:46.111Z,602.00
2024-04-13T03:35:46.201Z,606.00
2024-04-13T03:36:46.174Z,608.00
2024-04-13T03:37:46.130Z,608.00
2024-04-13T03:38:46.229Z,608.00
2024-04-13T03:39:46.393Z,609.00
2024-04-13T03:40:46.241Z,607.00
2024-04-13T03:41:46.214Z,608.00
2024-04-13T03:42:46.265Z,607.00
2024-04-13T03:43:46.277Z,606.00
2024-04-13T03:44:46.332Z,605.00
2024-04-13T03:45:46.310Z,604.00
2024-04-13T03:46:46.353Z,605.00
2024-04-13T03:47:46.375Z,606.00
2024-04-13T03:48:46.454Z,607.00
2024-04-13T03:49:46.323Z,606.00
2024-04-13T03:50:46.326Z,605.00
2024-04-13T03:51:46.512Z,604.00
2024-04-13T03:52:46.433Z,604.00
2024-04-13T03:53:46.355Z,604.00
2024-04-13T03:54:46.347Z,604.00
2024-04-13T03:55:46.628Z,606.00
2024-04-13T03:56:46.571Z,604.00
2024-04-13T03:57:46.481Z,606.00
2024-04-13T03:58:46.433Z,607.00
2024-04-13T03:59:46.438Z,606.00
2024-04-13T04:00:46.581Z,606.00
2024-04-13T04:01:46.604Z,607.00
2024-04-13T04:02:46.476Z,609.00
2024-04-13T04:03:46.537Z,611.00
2024-04-13T04:04:46.528Z,612.00
2024-04-13T04:05:46.530Z,611.00
2024-04-13T04:06:46.604Z,611.00
2024-04-13T04:07:46.548Z,610.00
2024-04-13T04:08:46.556Z,609.00
2024-04-13T04:09:46.655Z,610.00
2024-04-13T04:10:46.554Z,610.00
2024-04-13T04:11:46.759Z,606.00
2024-04-13T04:12:46.628Z,606.00
2024-04-13T04:13:46.588Z,606.00
2024-04-13T04:14:46.741Z,608.00
2024-04-13T04:15:46.754Z,609.00
2024-04-13T04:16:46.777Z,610.00
2024-04-13T04:17:46.917Z,612.00
2024-04-13T04:18:46.811Z,611.00
2024-04-13T04:19:46.834Z,612.00
2024-04-13T04:20:46.743Z,615.00
2024-04-13T04:21:53.959Z,601.00
2024-04-13T04:22:54.010Z,595.00
2024-04-13T04:23:53.922Z,595.00
2024-04-13T04:24:53.995Z,593.00
2024-04-13T04:25:53.950Z,593.00
2024-04-13T04:26:53.951Z,594.00
2024-04-13T04:27:54.010Z,597.00
2024-04-13T04:28:53.949Z,597.00
2024-04-13T04:29:53.961Z,598.00
2024-04-13T04:30:53.971Z,599.00
2024-04-13T04:32:01.246Z,601.00
2024-04-13T04:33:01.181Z,596.00
2024-04-13T04:34:01.273Z,600.00
2024-04-13T04:35:01.297Z,602.00
2024-04-13T04:36:01.225Z,602.00
2024-04-13T04:37:01.283Z,602.00
2024-04-13T04:38:01.234Z,602.00
2024-04-13T04:39:01.212Z,603.00
2024-04-13T04:40:01.233Z,601.00
2024-04-13T04:41:01.196Z,602.00
2024-04-13T04:42:01.298Z,599.00
2024-04-13T04:43:01.273Z,599.00
2024-04-13T04:44:01.200Z,600.00
2024-04-13T04:45:01.184Z,598.00
2024-04-13T04:46:01.217Z,599.00
2024-04-13T04:47:01.193Z,598.00
2024-04-13T04:48:01.353Z,598.00
2024-04-13T04:49:01.213Z,599.00
2024-04-13T04:50:01.216Z,598.00
2024-04-13T04:51:01.349Z,597.00
2024-04-13T04:52:01.456Z,595.00
2024-04-13T04:53:01.239Z,596.00
2024-04-13T04:54:01.200Z,595.00
2024-04-13T04:55:01.199Z,594.00
2024-04-13T04:56:01.221Z,594.00
2024-04-13T04:57:01.218Z,593.00
2024-04-13T04:58:01.370Z,595.00
2024-04-13T04:59:01.222Z,595.00
2024-04-13T05:00:01.495Z,594.00
2024-04-13T05:01:01.276Z,594.00
2024-04-13T05:02:01.221Z,596.00
2024-04-13T05:03:01.198Z,595.00
2024-04-13T05:04:01.341Z,593.00
2024-04-13T05:05:01.218Z,592.00
2024-04-13T05:06:01.237Z,591.00
2024-04-13T05:07:01.240Z,592.00
2024-04-13T05:08:01.299Z,593.00
2024-04-13T05:09:01.362Z,596.00
2024-04-13T05:10:01.247Z,596.00
2024-04-13T05:11:01.256Z,594.00
2024-04-13T05:12:01.287Z,595.00
2024-04-13T05:13:01.230Z,595.00
2024-04-13T05:14:01.255Z,596.00
2024-04-13T05:15:01.232Z,596.00
2024-04-13T05:16:01.335Z,596.00
2024-04-13T05:17:01.301Z,598.00
2024-04-13T05:18:01.282Z,598.00
2024-04-13T05:19:01.419Z,598.00
2024-04-13T05:20:01.320Z,597.00
2024-04-13T05:21:01.331Z,596.00
2024-04-13T05:22:01.368Z,596.00
2024-04-13T05:23:01.452Z,595.00
2024-04-13T05:24:01.588Z,594.00
2024-04-13T05:25:01.654Z,594.00
2024-04-13T05:26:01.583Z,593.00
2024-04-13T05:27:01.592Z,593.00
2024-04-13T05:28:01.627Z,593.00
2024-04-13T05:29:01.684Z,592.00
2024-04-13T05:30:01.641Z,591.00
2024-04-13T05:31:01.800Z,590.00
2024-04-13T05:32:01.735Z,590.00
2024-04-13T05:33:01.779Z,589.00
2024-04-13T05:34:01.929Z,593.00
2024-04-13T05:35:01.938Z,590.00
2024-04-13T05:36:05.000Z,590.00
2024-04-13T05:37:01.942Z,592.00
2024-04-13T05:38:01.950Z,591.00
2024-04-13T05:39:02.075Z,592.00
2024-04-13T05:40:02.120Z,592.00
2024-04-13T05:41:01.995Z,594.00
2024-04-13T05:42:01.986Z,597.00
2024-04-13T05:43:02.017Z,604.00
2024-04-13T05:44:01.952Z,601.00
2024-04-13T05:45:01.972Z,600.00
2024-04-13T05:46:01.962Z,599.00
2024-04-13T05:47:01.998Z,597.00
2024-04-13T05:48:02.047Z,597.00
2024-04-13T05:49:01.979Z,595.00
2024-04-13T05:50:01.998Z,595.00
2024-04-13T05:51:01.945Z,593.00
2024-04-13T05:52:02.179Z,591.00
2024-04-13T05:53:01.998Z,590.00
2024-04-13T05:54:02.120Z,590.00
2024-04-13T05:55:01.990Z,592.00
2024-04-13T05:56:01.989Z,593.00
2024-04-13T05:57:02.054Z,593.00
2024-04-13T05:58:01.952Z,593.00
2024-04-13T05:59:02.008Z,593.00
2024-04-13T06:00:01.976Z,595.00
2024-04-13T06:01:02.072Z,594.00
2024-04-13T06:02:01.988Z,595.00
2024-04-13T06:03:02.024Z,598.00
2024-04-13T06:04:01.963Z,599.00
2024-04-13T06:05:01.970Z,599.00
2024-04-13T06:06:01.991Z,600.00
2024-04-13T06:07:01.978Z,599.00
2024-04-13T06:08:01.945Z,598.00
2024-04-13T06:09:01.962Z,597.00
2024-04-13T06:10:01.982Z,598.00
2024-04-13T06:11:02.007Z,602.00
2024-04-13T06:12:01.994Z,605.00
2024-04-13T06:13:02.000Z,605.00
2024-04-13T06:14:02.048Z,601.00
2024-04-13T06:15:01.981Z,602.00
2024-04-13T06:16:02.174Z,600.00
2024-04-13T06:17:02.103Z,601.00
2024-04-13T06:18:02.033Z,602.00
2024-04-13T06:19:03.615Z,602.00
2024-04-13T06:20:02.019Z,600.00
2024-04-13T06:21:02.019Z,599.00
2024-04-13T06:22:01.982Z,596.00
2024-04-13T06:23:01.994Z,594.00
2024-04-13T06:24:02.032Z,595.00
2024-04-13T06:25:01.982Z,594.00
2024-04-13T06:26:01.982Z,595.00
2024-04-13T06:27:02.041Z,596.00
2024-04-13T06:28:02.024Z,594.00
2024-04-13T06:29:02.110Z,595.00
2024-04-13T06:30:02.191Z,597.00
2024-04-13T06:31:02.239Z,595.00
2024-04-13T06:32:02.251Z,594.00
2024-04-13T06:33:02.395Z,594.00
2024-04-13T06:34:02.728Z,596.00
2024-04-13T06:35:02.442Z,599.00
2024-04-13T06:36:02.522Z,598.00
2024-04-13T06:37:02.563Z,597.00
2024-04-13T06:38:02.636Z,598.00
2024-04-13T06:39:02.744Z,599.00
2024-04-13T06:40:02.719Z,597.00
2024-04-13T06:41:02.806Z,600.00
2024-04-13T06:42:02.842Z,600.00
2024-04-13T06:43:02.914Z,599.00
2024-04-13T06:44:02.948Z,599.00
2024-04-13T06:45:03.043Z,599.00
2024-04-13T06:46:02.983Z,599.00
2024-04-13T06:47:03.144Z,602.00
2024-04-13T06:48:03.135Z,601.00
2024-04-13T06:49:03.067Z,600.00
2024-04-13T06:50:03.062Z,602.00
2024-04-13T06:51:03.070Z,601.00
2024-04-13T06:52:03.134Z,600.00
2024-04-13T06:53:03.080Z,599.00
2024-04-13T06:54:03.136Z,597.00
2024-04-13T06:55:03.150Z,599.00
2024-04-13T06:56:03.172Z,598.00
2024-04-13T06:57:03.147Z,599.00
2024-04-13T06:58:03.366Z,598.00
2024-04-13T06:59:03.229Z,596.00
2024-04-13T07:00:03.265Z,596.00
2024-04-13T07:01:03.383Z,597.00
2024-04-13T07:02:03.354Z,595.00
2024-04-13T07:03:03.402Z,596.00
2024-04-13T07:04:03.418Z,598.00
2024-04-13T07:05:03.285Z,601.00
2024-04-13T07:06:03.287Z,602.00
2024-04-13T07:07:03.316Z,601.00
2024-04-13T07:08:03.293Z,602.00
2024-04-13T07:09:03.331Z,603.00
2024-04-13T07:10:03.353Z,603.00
2024-04-13T07:11:03.424Z,603.00
2024-04-13T07:12:04.783Z,602.00
2024-04-13T07:13:03.496Z,604.00
2024-04-13T07:14:03.605Z,602.00
2024-04-13T07:15:03.706Z,603.00
2024-04-13T07:16:03.824Z,602.00
2024-04-13T07:17:03.723Z,599.00
2024-04-13T07:18:03.812Z,597.00
2024-04-13T07:19:03.877Z,596.00
2024-04-13T07:20:03.937Z,596.00
2024-04-13T07:21:04.047Z,596.00
2024-04-13T07:22:04.074Z,596.00
2024-04-13T07:23:04.113Z,598.00
2024-04-13T07:24:04.287Z,599.00
2024-04-13T07:25:04.258Z,595.00
2024-04-13T07:26:04.341Z,593.00
2024-04-13T07:27:04.457Z,593.00
2024-04-13T07:28:04.448Z,593.00
2024-04-13T07:29:04.495Z,594.00
2024-04-13T07:30:04.584Z,593.00
2024-04-13T07:31:04.793Z,594.00
2024-04-13T07:32:04.677Z,598.00
2024-04-13T07:33:04.911Z,596.00
2024-04-13T07:34:04.891Z,597.00
2024-04-13T07:35:04.867Z,598.00
2024-04-13T07:36:04.936Z,601.00
2024-04-13T07:37:05.002Z,601.00
2024-04-13T07:38:05.036Z,601.00
2024-04-13T07:39:05.107Z,601.00
2024-04-13T07:40:05.190Z,601.00
2024-04-13T07:41:05.165Z,601.00
2024-04-13T07:42:05.232Z,600.00
2024-04-13T07:43:05.229Z,598.00
2024-04-13T07:44:05.332Z,598.00
2024-04-13T07:45:05.394Z,596.00
2024-04-13T07:46:05.332Z,598.00
2024-04-13T07:47:05.409Z,598.00
2024-04-13T07:48:05.560Z,596.00
2024-04-13T07:49:05.528Z,594.00
2024-04-13T07:50:05.490Z,592.00
2024-04-13T07:51:05.596Z,592.00
2024-04-13T07:52:05.525Z,590.00
2024-04-13T07:53:05.650Z,589.00
2024-04-13T07:54:05.602Z,589.00
2024-04-13T07:55:05.623Z,591.00
2024-04-13T07:56:05.628Z,593.00
2024-04-13T07:57:05.669Z,596.00
2024-04-13T07:58:05.645Z,600.00
2024-04-13T07:59:05.649Z,596.00
2024-04-13T08:00:05.713Z,596.00
2024-04-13T08:01:05.769Z,597.00
2024-04-13T08:02:05.720Z,596.00
2024-04-13T08:03:05.782Z,594.00
2024-04-13T08:04:05.832Z,593.00
2024-04-13T08:05:05.843Z,594.00
2024-04-13T08:06:05.773Z,594.00
2024-04-13T08:07:05.803Z,595.00
2024-04-13T08:08:05.806Z,597.00
2024-04-13T08:09:05.816Z,596.00
2024-04-13T08:10:05.864Z,600.00
2024-04-13T08:11:05.874Z,601.00
2024-04-13T08:12:05.896Z,602.00
2024-04-13T08:13:05.961Z,602.00
2024-04-13T08:14:05.897Z,603.00
2024-04-13T08:15:05.926Z,606.00
2024-04-13T08:16:05.956Z,605.00
2024-04-13T08:17:05.989Z,604.00
2024-04-13T08:18:06.015Z,603.00
2024-04-13T08:19:05.987Z,604.00
2024-04-13T08:20:05.999Z,602.00
2024-04-13T08:21:05.992Z,601.00
2024-04-13T08:22:06.086Z,601.00
2024-04-13T08:23:06.013Z,603.00
2024-04-13T08:24:06.077Z,605.00
2024-04-13T08:25:06.096Z,606.00
2024-04-13T08:26:06.079Z,606.00
2024-04-13T08:27:06.096Z,606.00
2024-04-13T08:28:06.128Z,606.00
2024-04-13T08:29:06.146Z,605.00
2024-04-13T08:30:06.291Z,605.00
2024-04-13T08:31:06.357Z,604.00
2024-04-13T08:32:06.263Z,603.00
2024-04-13T08:33:06.294Z,603.00
2024-04-13T08:34:06.261Z,604.00
2024-04-13T08:35:06.421Z,603.00
2024-04-13T08:36:06.201Z,602.00
2024-04-13T08:37:06.252Z,601.00
2024-04-13T08:38:08.616Z,599.00
2024-04-13T08:39:06.283Z,600.00
2024-04-13T08:40:06.449Z,599.00
2024-04-13T08:41:06.413Z,599.00
2024-04-13T08:42:06.307Z,599.00
2024-04-13T08:43:06.308Z,599.00
2024-04-13T08:44:08.768Z,601.00
2024-04-13T08:45:06.355Z,604.00
2024-04-13T08:46:06.325Z,603.00
2024-04-13T08:47:06.282Z,602.00
2024-04-13T08:48:06.445Z,602.00
2024-04-13T08:49:06.356Z,604.00
2024-04-13T08:50:07.211Z,604.00
2024-04-13T08:51:06.318Z,604.00
2024-04-13T08:52:06.305Z,605.00
2024-04-13T08:53:06.330Z,607.00
2024-04-13T08:54:06.317Z,607.00
2024-04-13T08:55:06.277Z,605.00
2024-04-13T08:56:08.879Z,607.00
2024-04-13T08:57:06.301Z,608.00
2024-04-13T08:58:06.272Z,610.00
2024-04-13T08:59:06.324Z,610.00
2024-04-13T09:00:06.370Z,610.00
2024-04-13T09:01:06.432Z,610.00
2024-04-13T09:02:08.644Z,612.00
2024-04-13T09:03:06.367Z,612.00
2024-04-13T09:04:06.399Z,612.00
2024-04-13T09:05:06.356Z,611.00
2024-04-13T09:06:06.390Z,613.00
2024-04-13T09:07:06.296Z,612.00
2024-04-13T09:08:06.336Z,612.00
2024-04-13T09:09:06.316Z,609.00
2024-04-13T09:10:06.323Z,607.00
2024-04-13T09:11:06.376Z,605.00
2024-04-13T09:12:06.356Z,604.00
2024-04-13T09:13:06.413Z,604.00
2024-04-13T09:14:06.347Z,604.00
2024-04-13T09:15:06.336Z,601.00
2024-04-13T09:16:06.431Z,601.00
2024-04-13T09:17:06.431Z,601.00
2024-04-13T09:18:06.414Z,600.00
2024-04-13T09:19:08.693Z,601.00
2024-04-13T09:20:06.397Z,602.00
2024-04-13T09:21:06.366Z,602.00
2024-04-13T09:22:06.302Z,600.00
2024-04-13T09:23:06.415Z,599.00
2024-04-13T09:24:06.377Z,599.00
2024-04-13T09:25:06.504Z,600.00
2024-04-13T09:26:06.322Z,598.00
2024-04-13T09:27:06.347Z,599.00
2024-04-13T09:28:06.373Z,597.00
2024-04-13T09:29:06.365Z,598.00
2024-04-13T09:30:06.328Z,598.00
2024-04-13T09:31:06.324Z,600.00
2024-04-13T09:32:06.362Z,600.00
2024-04-13T09:33:06.365Z,600.00
2024-04-13T09:34:06.380Z,597.00
2024-04-13T09:35:06.454Z,598.00
2024-04-13T09:36:06.415Z,595.00
2024-04-13T09:37:06.391Z,594.00
2024-04-13T09:38:06.384Z,596.00
2024-04-13T09:39:06.337Z,596.00
2024-04-13T09:40:06.391Z,595.00
2024-04-13T09:41:06.396Z,595.00
2024-04-13T09:42:06.377Z,594.00
2024-04-13T09:43:06.441Z,594.00
2024-04-13T09:44:06.409Z,594.00
2024-04-13T09:45:06.343Z,594.00
2024-04-13T09:46:06.380Z,595.00
2024-04-13T09:47:06.328Z,596.00
2024-04-13T09:48:06.405Z,598.00
2024-04-13T09:49:06.490Z,598.00
2024-04-13T09:50:07.031Z,595.00
2024-04-13T09:51:06.395Z,595.00
2024-04-13T09:52:06.383Z,598.00
2024-04-13T09:53:06.395Z,600.00
2024-04-13T09:54:06.379Z,599.00
2024-04-13T09:55:06.466Z,598.00
2024-04-13T09:56:06.402Z,598.00
2024-04-13T09:57:06.403Z,598.00
2024-04-13T09:58:06.974Z,597.00
2024-04-13T09:59:06.535Z,596.00
2024-04-13T10:00:08.738Z,594.00
2024-04-13T10:01:06.743Z,595.00
2024-04-13T10:02:06.653Z,596.00
2024-04-13T10:03:06.749Z,595.00
2024-04-13T10:04:06.790Z,595.00
2024-04-13T10:05:06.662Z,596.00
2024-04-13T10:06:06.683Z,596.00
2024-04-13T10:07:06.697Z,595.00
2024-04-13T10:08:06.691Z,596.00
2024-04-13T10:09:06.713Z,597.00
2024-04-13T10:10:06.708Z,601.00
2024-04-13T10:11:06.769Z,600.00
2024-04-13T10:12:06.708Z,600.00
2024-04-13T10:13:06.835Z,599.00
2024-04-13T10:14:06.844Z,599.00
2024-04-13T10:15:07.500Z,598.00
2024-04-13T10:16:06.952Z,594.00
2024-04-13T10:17:06.842Z,591.00
2024-04-13T10:18:07.009Z,592.00
2024-04-13T10:19:06.863Z,593.00
2024-04-13T10:20:06.856Z,592.00
2024-04-13T10:21:06.955Z,592.00
2024-04-13T10:22:12.323Z,591.00
2024-04-13T10:23:07.971Z,592.00
2024-04-13T10:24:06.935Z,593.00
2024-04-13T10:25:06.938Z,594.00
2024-04-13T10:26:06.951Z,596.00
2024-04-13T10:27:06.917Z,595.00
2024-04-13T10:28:06.949Z,595.00
2024-04-13T10:29:07.078Z,593.00
2024-04-13T10:30:07.085Z,591.00
2024-04-13T10:31:06.960Z,594.00
2024-04-13T10:32:06.885Z,597.00
2024-04-13T10:33:06.947Z,598.00
2024-04-13T10:34:06.970Z,598.00
2024-04-13T10:35:06.913Z,597.00
2024-04-13T10:36:07.090Z,597.00
2024-04-13T10:37:06.953Z,595.00
2024-04-13T10:38:06.932Z,595.00
2024-04-13T10:39:07.073Z,595.00
2024-04-13T10:40:06.938Z,596.00
2024-04-13T10:41:06.927Z,594.00
2024-04-13T10:42:06.919Z,594.00
2024-04-13T10:43:06.932Z,594.00
2024-04-13T10:44:07.112Z,596.00
2024-04-13T10:45:06.967Z,595.00
2024-04-13T10:46:07.110Z,596.00
2024-04-13T10:47:07.003Z,595.00
2024-04-13T10:48:07.011Z,593.00
2024-04-13T10:49:07.007Z,593.00
2024-04-13T10:50:07.048Z,594.00
2024-04-13T10:51:07.107Z,594.00
2024-04-13T10:52:06.989Z,596.00
2024-04-13T10:53:07.038Z,597.00
2024-04-13T10:54:07.031Z,597.00
2024-04-13T10:55:07.043Z,594.00
2024-04-13T10:56:07.113Z,591.00
2024-04-13T10:57:13.056Z,593.00
2024-04-13T10:58:08.085Z,592.00
2024-04-13T10:59:07.144Z,592.00
2024-04-13T11:00:07.350Z,593.00
2024-04-13T11:01:07.291Z,594.00
2024-04-13T11:02:07.222Z,592.00
2024-04-13T11:03:07.383Z,589.00
2024-04-13T11:04:07.397Z,589.00
2024-04-13T11:05:07.095Z,587.00
2024-04-13T11:06:07.082Z,588.00
2024-04-13T11:07:07.105Z,589.00
2024-04-13T11:08:07.093Z,589.00
2024-04-13T11:09:07.242Z,591.00
2024-04-13T11:10:07.110Z,593.00
2024-04-13T11:11:07.113Z,593.00
2024-04-13T11:12:07.199Z,591.00
2024-04-13T11:13:07.171Z,591.00
2024-04-13T11:14:07.204Z,589.00
2024-04-13T11:15:07.248Z,589.00
2024-04-13T11:16:07.538Z,586.00
2024-04-13T11:17:07.348Z,584.00
2024-04-13T11:18:07.422Z,583.00
2024-04-13T11:19:07.497Z,582.00
2024-04-13T11:20:07.395Z,583.00
2024-04-13T11:21:07.549Z,583.00
2024-04-13T11:22:07.500Z,583.00
2024-04-13T11:23:07.627Z,582.00
2024-04-13T11:24:07.622Z,583.00
2024-04-13T11:25:07.589Z,584.00
2024-04-13T11:26:07.668Z,584.00
2024-04-13T11:27:07.769Z,586.00
2024-04-13T11:28:07.748Z,588.00
2024-04-13T11:29:07.786Z,586.00
2024-04-13T11:30:07.948Z,587.00
2024-04-13T11:31:07.983Z,587.00
2024-04-13T11:32:08.046Z,588.00
2024-04-13T11:33:07.978Z,586.00
2024-04-13T11:34:07.960Z,587.00
2024-04-13T11:35:08.021Z,588.00
2024-04-13T11:36:08.072Z,590.00
2024-04-13T11:37:08.190Z,590.00
2024-04-13T11:38:08.147Z,591.00
2024-04-13T11:39:08.260Z,588.00
2024-04-13T11:40:08.237Z,587.00
2024-04-13T11:41:08.310Z,588.00
2024-04-13T11:42:08.375Z,590.00
2024-04-13T11:43:08.399Z,587.00
2024-04-13T11:44:08.461Z,585.00
2024-04-13T11:45:08.619Z,583.00
2024-04-13T11:46:08.491Z,582.00
2024-04-13T11:47:08.560Z,581.00
2024-04-13T11:48:08.688Z,583.00
2024-04-13T11:49:08.660Z,582.00
2024-04-13T11:50:08.645Z,584.00
2024-04-13T11:51:10.686Z,584.00
2024-04-13T11:52:08.753Z,585.00
2024-04-13T11:53:08.832Z,585.00
2024-04-13T11:54:08.954Z,584.00
2024-04-13T11:55:08.968Z,581.00
2024-04-13T11:56:08.966Z,581.00
2024-04-13T11:57:09.038Z,585.00
2024-04-13T11:58:09.061Z,587.00
2024-04-13T11:59:09.090Z,589.00
2024-04-13T12:00:09.263Z,589.00
2024-04-13T12:01:09.500Z,590.00
2024-04-13T12:02:09.280Z,589.00
2024-04-13T12:03:09.412Z,588.00
2024-04-13T12:04:09.404Z,588.00
2024-04-13T12:05:09.476Z,588.00
2024-04-13T12:06:09.443Z,587.00
2024-04-13T12:07:09.595Z,584.00
2024-04-13T12:08:09.568Z,582.00
2024-04-13T12:09:09.620Z,581.00
2024-04-13T12:10:09.714Z,582.00
2024-04-13T12:11:09.757Z,584.00
2024-04-13T12:12:09.866Z,584.00
2024-04-13T12:13:09.865Z,585.00
2024-04-13T12:14:09.923Z,585.00
2024-04-13T12:15:09.948Z,584.00
2024-04-13T12:16:10.028Z,584.00
2024-04-13T12:17:10.107Z,585.00
2024-04-13T12:18:10.258Z,585.00
2024-04-13T12:19:10.336Z,586.00
2024-04-13T12:20:10.268Z,586.00
2024-04-13T12:21:10.518Z,589.00
2024-04-13T12:22:10.460Z,588.00
2024-04-13T12:23:10.493Z,589.00
2024-04-13T12:24:10.493Z,586.00
2024-04-13T12:25:10.656Z,586.00
2024-04-13T12:26:10.679Z,585.00
2024-04-13T12:27:10.692Z,586.00
2024-04-13T12:28:10.794Z,587.00
2024-04-13T12:29:10.940Z,586.00